Nearby METAR Reports

 

KFRG - , , USA
Distance from station: SSW 12mi, 20km
Updated: 10/22/2018 3:53am
Clear
Clear
 Wind from W
Wind: W 6 mph , 9 km/h
Temperature: 34°F , 1°C
Wind Chill: 29°F , -2°C
Dew Point: 27°F , -3°C
Humidity: 75%
Barometer: 30.21 inHg , 1023 hPa
Clouds: Clear
Visibility: 10 miles , 16 km
2018/10/22 07:53 KFRG 220753Z AUTO 27005KT 10SM CLR 01/M03 A3021 RMK AO2 SLP229 T00111028
KISP - , , USA
Distance from station: ESE 14mi, 23km
Updated: 10/22/2018 3:56am
Few Clouds
Few Clouds
 Wind from W
Wind: W 6 mph , 9 km/h
Temperature: 32°F , 0°C
Wind Chill: 26°F , -3°C
Dew Point: 28°F , -2°C
Humidity: 87%
Barometer: 30.19 inHg , 1022.4 hPa
Clouds: Few Clouds
Visibility: 10 miles , 16 km
Cloud details: Few Clouds 4500 ft
2018/10/22 07:56 KISP 220756Z AUTO 26005KT 10SM FEW045 00/M02 A3019 RMK AO2 SLP223 T00001022
 
KBDR - , , USA
Distance from station: NNE 21mi, 34km
Updated: 10/22/2018 3:52am
Clear
Clear
 Wind from W
Wind: W 5 mph , 7 km/h
Temperature: 36°F , 2°C
Wind Chill: 32°F , 0°C
Dew Point: 28°F , -2°C
Humidity: 75%
Barometer: 30.19 inHg , 1022.4 hPa
Clouds: Clear
Visibility: 10 miles , 16 km
2018/10/22 07:52 KBDR 220752Z AUTO 27004KT 10SM CLR 02/M02 A3019 RMK AO2 SLP221 T00221022 $
KHPN - , , USA
Distance from station: WNW 22mi, 35km
Updated: 10/22/2018 3:56am
Clear
Clear
 Wind from W
Wind: W 7 mph , 11 km/h
Temperature: 36°F , 2°C
Wind Chill: 30°F , -1°C
Dew Point: 27°F , -3°C
Humidity: 70%
Barometer: 30.18 inHg , 1022 hPa
Clouds: Clear
Visibility: 10 miles , 16 km
2018/10/22 07:56 KHPN 220756Z 27006KT 10SM CLR 02/M03 A3018 RMK AO2 SLP224 T00171028
 
KHWV - , , USA
Distance from station: ESE 26mi, 41km
Updated: 10/22/2018 3:56am
Mostly cloudy
Mostly cloudy
 Wind from calm
Wind: Calm
Temperature: 34°F , 1°C
Dew Point: 27°F , -3°C
Humidity: 75%
Barometer: 30.19 inHg , 1022.4 hPa
Clouds: Mostly cloudy
Visibility: 10 miles , 16 km
Cloud details: Mostly cloudy 4700 ft
2018/10/22 07:56 KHWV 220756Z AUTO 00000KT 10SM BKN047 01/M03 A3019 RMK AO2 SLP224 T00061028
KJFK - , , USA
Distance from station: SW 29mi, 46km
Updated: 10/22/2018 3:51am
Clear
Clear
 Wind from W
Wind: W 12 mph , 19 km/h
Temperature: 39°F , 4°C
Wind Chill: 32°F , 0°C
Dew Point: 28°F , -2°C
Humidity: 65%
Barometer: 30.22 inHg , 1023.4 hPa
Clouds: Clear
Visibility: 10 miles , 16 km
2018/10/22 07:51 KJFK 220751Z 27010KT 10SM CLR 04/M02 A3022 RMK AO2 SLP233 T00441017 VISNO W $
 
KLGA - , , USA
Distance from station: WSW 29mi, 47km
Updated: 10/22/2018 3:51am
Clear
Clear
 Wind from W
Wind: W 9 mph , 15 km/h
Temperature: 43°F , 6°C
Wind Chill: 38°F , 3°C
Dew Point: 27°F , -3°C
Humidity: 53%
Barometer: 30.20 inHg , 1022.7 hPa
Clouds: Clear
Visibility: 10 miles , 16 km
2018/10/22 07:51 KLGA 220751Z 28008KT 10SM CLR 06/M03 A3020 RMK AO2 SLP227 T00611033